Time;durP1;ratioP1;P1;durP2;ratioP2;P2;SDS_P1;SDS_P2;PMS_P1;PMS_P2;Temp;Humidity;BMP_temperature;BMP_pressure;BME280_temperature;BME280_humidity;BME280_pressure;Samples;Min_cycle;Max_cycle;Signal;HPM_P1;HPM_P2
2022/12/15 00:39:43;;;;;;;3.55;2.42;;;-1.40;99.90;;;;;;5010152;28;20236;-68
2022/12/15 00:42:11;;;;;;;2.00;1.90;;;-1.40;99.90;;;;;;5012126;28;20199;-68
2022/12/15 00:44:38;;;;;;;5.03;4.68;;;-1.40;99.90;;;;;;5029629;28;20219;-68
2022/12/15 00:47:04;;;;;;;9.70;3.08;;;-1.40;99.90;;;;;;5029164;28;20235;-69
2022/12/15 01:22:36;;;;;;;2.42;2.30;;;-1.70;99.90;;;;;;5029037;28;20278;-68
2022/12/15 01:25:04;;;;;;;2.75;2.45;;;-1.60;99.90;;;;;;5028622;28;20210;-68
2022/12/15 01:27:31;;;;;;;4.43;2.63;;;-1.60;99.90;;;;;;5028737;28;20207;-68
2022/12/15 01:29:59;;;;;;;1.88;1.88;;;-1.70;99.90;;;;;;5029003;28;20294;-68
2022/12/15 01:32:26;;;;;;;3.55;3.08;;;-1.70;99.90;;;;;;5028632;28;20208;-68
2022/12/15 01:34:53;;;;;;;3.60;3.40;;;-1.70;99.90;;;;;;5027599;28;20212;-68
2022/12/15 01:37:20;;;;;;;4.72;3.53;;;-1.60;99.90;;;;;;5027948;28;20208;-68
2022/12/15 01:42:31;;;;;;;2.00;1.90;;;-1.50;99.90;;;;;;5026881;28;20197;-68
2022/12/15 01:45:37;;;;;;;7.30;4.90;;;-1.60;99.90;;;;;;5027258;28;20218;-69
2022/12/15 01:48:07;;;;;;;1.77;1.50;;;-1.60;99.90;;;;;;5012297;28;20204;-68
2022/12/15 01:50:39;;;;;;;5.80;4.50;;;-1.60;99.90;;;;;;5027656;28;20587;-68
2022/12/15 01:53:06;;;;;;;3.33;2.63;;;-1.50;99.90;;;;;;5027577;28;20208;-69
2022/12/15 01:55:33;;;;;;;8.13;4.65;;;-1.50;99.90;;;;;;5027250;28;20208;-68
2022/12/15 01:58:05;;;;;;;4.28;3.95;;;-1.40;99.90;;;;;;5027386;28;20927;-68
2022/12/15 02:00:32;;;;;;;5.78;2.53;;;-1.50;99.90;;;;;;5028062;28;20618;-68
2022/12/15 02:03:01;;;;;;;7.30;3.35;;;-1.40;99.90;;;;;;5027380;28;20213;-69
2022/12/15 02:05:30;;;;;;;3.58;2.83;;;-1.40;99.90;;;;;;5026707;28;20200;-69
2022/12/15 02:07:59;;;;;;;2.65;2.45;;;-1.40;99.90;;;;;;5026571;28;20205;-68
2022/12/15 02:10:34;;;;;;;4.60;4.30;;;-1.40;99.90;;;;;;5027507;28;20210;-69
2022/12/15 02:13:10;;;;;;;5.20;4.15;;;-1.30;99.90;;;;;;5027005;28;20214;-69
2022/12/15 02:15:47;;;;;;;5.55;4.35;;;-1.40;99.90;;;;;;5027226;28;20295;-68
2022/12/15 02:18:25;;;;;;;2.97;2.25;;;-1.30;99.90;;;;;;5026939;28;20210;-68
2022/12/15 02:20:58;;;;;;;1.88;1.70;;;-1.30;99.90;;;;;;5027276;28;20230;-68
2022/12/15 02:24:19;;;;;;;5.50;5.15;;;-1.40;99.90;;;;;;5027278;28;20218;-68
2022/12/15 02:27:25;;;;;;;3.78;2.33;;;-1.30;99.90;;;;;;5026887;28;20197;-68
2022/12/15 02:30:25;;;;;;;2.88;2.67;;;-1.30;99.90;;;;;;5027204;28;20260;-68
2022/12/15 02:33:03;;;;;;;7.63;5.07;;;-1.30;99.90;;;;;;5026858;28;20202;-68
2022/12/15 02:35:41;;;;;;;2.15;2.05;;;-1.20;99.90;;;;;;5027012;28;20212;-68
2022/12/15 02:38:10;;;;;;;8.82;4.43;;;-1.10;99.90;;;;;;5026919;28;20198;-68
2022/12/15 02:40:39;;;;;;;2.45;2.25;;;-1.20;99.90;;;;;;5027276;28;20290;-68
2022/12/15 02:43:07;;;;;;;3.45;1.27;;;-1.20;99.90;;;;;;5026344;28;20638;-67
2022/12/15 02:45:50;;;;;;;2.53;2.42;;;-1.20;99.90;;;;;;5026619;28;20234;-69
2022/12/15 02:48:28;;;;;;;5.53;3.65;;;-1.20;99.90;;;;;;5027140;28;20208;-68
2022/12/15 02:51:08;;;;;;;4.40;4.10;;;-1.20;99.90;;;;;;5022381;28;20208;-68
2022/12/15 02:53:54;;;;;;;4.25;4.03;;;-1.20;99.90;;;;;;5028031;28;20254;-68
2022/12/15 02:56:32;;;;;;;5.10;3.90;;;-1.20;99.90;;;;;;5030826;28;20214;-68
2022/12/15 02:59:09;;;;;;;4.53;3.78;;;-1.20;99.90;;;;;;5030200;28;20245;-68
2022/12/15 03:01:43;;;;;;;2.25;2.13;;;-1.20;99.90;;;;;;5030945;28;20223;-69
2022/12/15 03:04:12;;;;;;;3.35;3.15;;;-1.10;99.90;;;;;;5030767;28;20199;-68
2022/12/15 03:06:40;;;;;;;4.45;4.15;;;-1.20;99.90;;;;;;5030548;28;20195;-69
2022/12/15 03:09:06;;;;;;;4.05;2.85;;;-1.10;99.90;;;;;;5030714;28;20197;-69
2022/12/15 03:11:34;;;;;;;3.42;2.78;;;-1.10;99.90;;;;;;5030573;28;20249;-68
2022/12/15 03:14:02;;;;;;;4.55;4.07;;;-1.20;99.90;;;;;;5030476;28;20676;-69
2022/12/15 03:16:30;;;;;;;9.32;5.93;;;-1.20;99.90;;;;;;5029958;28;20235;-68
2022/12/15 03:18:59;;;;;;;6.32;4.00;;;-1.20;99.90;;;;;;5030318;28;20235;-69
2022/12/15 03:21:27;;;;;;;4.63;4.10;;;-1.20;99.90;;;;;;5030224;28;20205;-68
2022/12/15 03:23:54;;;;;;;6.13;3.72;;;-1.20;99.90;;;;;;5030320;28;20204;-68
2022/12/15 03:26:22;;;;;;;34.88;4.28;;;-1.20;99.90;;;;;;5030189;28;20235;-68
2022/12/15 03:28:49;;;;;;;9.00;3.95;;;-1.20;99.90;;;;;;5030204;28;20732;-69
2022/12/15 03:31:16;;;;;;;9.45;5.80;;;-1.30;99.90;;;;;;5030071;28;20878;-68
2022/12/15 03:33:44;;;;;;;8.23;4.07;;;-1.20;99.90;;;;;;5030219;28;20229;-67
2022/12/15 03:36:13;;;;;;;23.20;3.38;;;-1.20;99.90;;;;;;5029346;28;20228;-68
2022/12/15 03:38:41;;;;;;;4.82;4.35;;;-1.20;99.90;;;;;;5030133;28;20680;-68
2022/12/15 03:41:09;;;;;;;3.03;2.55;;;-1.30;99.90;;;;;;5030056;28;20697;-68
2022/12/15 03:43:37;;;;;;;1.30;1.30;;;-1.20;99.90;;;;;;5029338;28;20683;-67
2022/12/15 03:46:05;;;;;;;2.10;1.92;;;-1.20;99.90;;;;;;5029470;28;20204;-68
2022/12/15 03:48:33;;;;;;;2.25;1.42;;;-1.30;99.90;;;;;;5029857;28;20208;-70
2022/12/15 03:51:00;;;;;;;5.72;3.33;;;-1.30;99.90;;;;;;5029844;28;20285;-68
2022/12/15 03:53:30;;;;;;;6.07;4.25;;;-1.30;99.90;;;;;;5029830;28;20249;-68
2022/12/15 03:55:58;;;;;;;4.85;4.45;;;-1.30;99.90;;;;;;5028930;28;20196;-68
2022/12/15 03:58:26;;;;;;;2.35;2.15;;;-1.20;99.90;;;;;;5029634;28;20233;-67
2022/12/15 04:00:55;;;;;;;3.38;3.17;;;-1.20;99.90;;;;;;5029590;28;20227;-68
2022/12/15 04:03:23;;;;;;;11.52;4.30;;;-1.20;99.90;;;;;;5029748;28;20683;-68
2022/12/15 04:05:50;;;;;;;2.97;2.78;;;-1.20;99.90;;;;;;5028594;28;20289;-68
2022/12/15 04:08:17;;;;;;;2.85;2.25;;;-1.20;99.90;;;;;;5029400;28;20206;-68
2022/12/15 04:10:45;;;;;;;3.58;3.25;;;-1.20;99.90;;;;;;5029024;28;20204;-68
2022/12/15 04:13:12;;;;;;;11.68;5.05;;;-1.20;99.90;;;;;;5029540;28;20290;-68
2022/12/15 04:15:40;;;;;;;8.68;5.45;;;-1.20;99.90;;;;;;5029360;28;20197;-68
2022/12/15 04:18:09;;;;;;;3.00;2.78;;;-1.20;99.90;;;;;;5029343;28;20236;-69
2022/12/15 04:20:36;;;;;;;4.05;3.03;;;-1.20;99.90;;;;;;5029304;28;20235;-68
2022/12/15 04:23:06;;;;;;;7.40;3.42;;;-1.30;99.90;;;;;;5028780;28;20219;-68
2022/12/15 05:31:51;;;;;;;3.20;2.85;;;-1.30;99.90;;;;;;5040971;28;20207;-68
2022/12/15 05:34:21;;;;;;;5.20;4.90;;;-1.20;99.90;;;;;;5048689;28;20201;-68
2022/12/15 05:36:48;;;;;;;3.55;1.85;;;-1.20;99.90;;;;;;5048638;28;20222;-68
2022/12/15 05:39:15;;;;;;;10.10;6.13;;;-1.20;99.90;;;;;;5048459;28;20232;-68
2022/12/15 05:41:42;;;;;;;4.53;4.22;;;-1.20;99.90;;;;;;5044376;28;20193;-68
2022/12/15 05:44:09;;;;;;;13.63;3.65;;;-1.20;99.90;;;;;;5030270;28;20195;-68
2022/12/15 05:46:37;;;;;;;3.67;3.05;;;-1.20;99.90;;;;;;5037741;28;20208;-70
2022/12/15 05:49:09;;;;;;;3.55;2.60;;;-1.20;99.90;;;;;;5028209;28;20198;-70
2022/12/15 05:51:40;;;;;;;4.78;3.50;;;-1.10;99.90;;;;;;5024009;28;20665;-68
2022/12/15 05:54:07;;;;;;;3.17;2.97;;;-1.20;99.90;;;;;;5026602;28;20194;-68
2022/12/15 05:56:34;;;;;;;2.78;2.58;;;-1.20;99.90;;;;;;5026182;28;20238;-68
2022/12/15 05:59:01;;;;;;;1.83;1.73;;;-1.10;99.90;;;;;;5025754;28;20222;-68
2022/12/15 06:01:29;;;;;;;3.10;2.90;;;-1.10;99.90;;;;;;5027157;28;20200;-69
2022/12/15 06:03:56;;;;;;;4.60;3.38;;;-1.20;99.90;;;;;;5027771;28;20212;-68
2022/12/15 06:06:23;;;;;;;2.25;2.03;;;-1.20;99.90;;;;;;5026519;28;20207;-68
2022/12/15 06:08:51;;;;;;;5.38;2.75;;;-1.20;99.90;;;;;;5027540;28;20786;-69
2022/12/15 06:11:20;;;;;;;2.90;2.53;;;-1.20;99.90;;;;;;5027466;28;20295;-68
2022/12/15 06:13:47;;;;;;;5.25;3.97;;;-1.20;99.90;;;;;;5027480;28;20737;-68
2022/12/15 06:16:15;;;;;;;7.78;5.82;;;-1.20;99.90;;;;;;5026634;28;20205;-67
2022/12/15 06:18:45;;;;;;;2.13;1.95;;;-1.20;99.90;;;;;;5027768;28;20212;-67
2022/12/15 06:21:13;;;;;;;3.05;2.78;;;-1.20;99.90;;;;;;5027344;28;20231;-67
2022/12/15 06:23:41;;;;;;;2.83;2.63;;;-1.10;99.90;;;;;;5022550;28;20646;-67
2022/12/15 06:26:14;;;;;;;5.50;4.68;;;-1.10;99.90;;;;;;5025364;28;20220;-70
2022/12/15 06:28:41;;;;;;;8.15;3.55;;;-1.00;99.90;;;;;;5027044;28;20278;-68
2022/12/15 06:31:10;;;;;;;3.88;2.40;;;-1.10;99.90;;;;;;5026952;28;20306;-67
2022/12/15 06:33:37;;;;;;;6.30;4.50;;;-1.00;99.90;;;;;;5026788;28;20199;-68
2022/12/15 06:36:06;;;;;;;7.65;5.57;;;-1.10;99.90;;;;;;5024298;28;20206;-67
2022/12/15 06:38:34;;;;;;;8.77;4.07;;;-1.10;99.90;;;;;;5026536;28;20219;-68
2022/12/15 06:41:02;;;;;;;3.15;2.95;;;-1.10;99.90;;;;;;5027045;28;20237;-67
2022/12/15 06:43:31;;;;;;;5.70;4.30;;;-1.20;99.90;;;;;;5026900;28;20198;-69
2022/12/15 06:45:58;;;;;;;6.20;4.43;;;-1.10;99.90;;;;;;5025440;28;20319;-68
2022/12/15 06:48:26;;;;;;;2.67;2.47;;;-1.10;99.90;;;;;;5027022;28;20205;-68
2022/12/15 06:50:53;;;;;;;3.00;2.80;;;-1.10;99.90;;;;;;5026288;28;20203;-68
2022/12/15 06:53:22;;;;;;;7.10;3.72;;;-1.20;99.90;;;;;;5026830;28;20208;-67
2022/12/15 06:55:49;;;;;;;5.10;4.00;;;-1.10;99.90;;;;;;5025939;28;20206;-68
2022/12/15 06:58:16;;;;;;;6.80;3.30;;;-1.20;99.90;;;;;;5026393;28;20196;-68
2022/12/15 07:00:45;;;;;;;7.88;3.33;;;-1.10;99.90;;;;;;5026743;28;20276;-67
2022/12/15 07:03:15;;;;;;;2.00;1.90;;;-1.20;99.90;;;;;;5026572;28;20213;-68
2022/12/15 07:05:42;;;;;;;4.03;3.70;;;-1.20;99.90;;;;;;5025051;28;20813;-69
2022/12/15 07:08:10;;;;;;;7.50;4.22;;;-1.20;99.90;;;;;;5026260;28;20216;-67
2022/12/15 07:10:39;;;;;;;1.50;1.40;;;-1.20;99.90;;;;;;5026926;28;20211;-68
2022/12/15 07:13:07;;;;;;;6.57;4.53;;;-1.10;99.90;;;;;;5026771;28;20210;-67
2022/12/15 07:15:33;;;;;;;4.32;3.97;;;-1.10;99.90;;;;;;5025474;28;20734;-71
2022/12/15 07:18:02;;;;;;;4.57;4.13;;;-1.10;99.90;;;;;;5025589;28;20211;-68
2022/12/15 07:20:29;;;;;;;6.85;4.15;;;-1.10;99.90;;;;;;5026460;28;20249;-68
2022/12/15 07:22:56;;;;;;;3.80;3.50;;;-1.10;99.90;;;;;;5026376;28;20213;-67
2022/12/15 07:25:23;;;;;;;4.28;3.80;;;-1.10;99.90;;;;;;5026751;28;20233;-68
2022/12/15 07:27:50;;;;;;;8.93;3.22;;;-1.10;99.90;;;;;;5025434;28;20204;-68
2022/12/15 07:30:17;;;;;;;4.07;3.55;;;-1.10;99.90;;;;;;5026395;28;20685;-68
2022/12/15 07:32:44;;;;;;;8.43;5.40;;;-1.10;99.90;;;;;;5025549;28;20204;-68
2022/12/15 07:35:13;;;;;;;5.45;3.17;;;-1.00;99.90;;;;;;5026835;28;20265;-69
2022/12/15 07:37:39;;;;;;;6.20;4.28;;;-1.00;99.90;;;;;;5025307;28;20212;-68
2022/12/15 07:40:08;;;;;;;5.35;4.88;;;-1.00;99.90;;;;;;5027235;28;20230;-68
2022/12/15 07:42:35;;;;;;;6.18;5.68;;;-0.90;99.90;;;;;;5029924;28;20370;-69
2022/12/15 07:45:02;;;;;;;3.95;3.67;;;-1.00;99.90;;;;;;5029453;28;20305;-68
2022/12/15 07:47:28;;;;;;;4.85;4.00;;;-1.00;99.90;;;;;;5028688;28;20209;-69
2022/12/15 07:49:55;;;;;;;6.47;4.22;;;-0.90;99.90;;;;;;5030077;28;20198;-68
2022/12/15 07:52:23;;;;;;;4.72;3.50;;;-0.90;99.90;;;;;;5029750;28;20692;-68
2022/12/15 07:54:50;;;;;;;3.80;2.70;;;-0.90;99.90;;;;;;5029753;28;20212;-68
2022/12/15 07:57:17;;;;;;;8.55;3.53;;;-0.90;99.90;;;;;;5028806;28;20220;-68
2022/12/15 07:59:45;;;;;;;4.25;3.97;;;-0.70;99.90;;;;;;5028974;28;20195;-68
2022/12/15 08:02:12;;;;;;;1.77;1.67;;;-0.80;99.90;;;;;;5029795;28;20294;-68
2022/12/15 08:04:40;;;;;;;3.53;3.33;;;-0.80;99.90;;;;;;5029906;28;20279;-68
2022/12/15 08:07:10;;;;;;;5.22;2.75;;;-0.70;99.90;;;;;;5027720;28;20205;-67
2022/12/15 08:09:38;;;;;;;6.90;4.05;;;-0.70;99.90;;;;;;5029647;28;20236;-68
2022/12/15 08:12:05;;;;;;;3.90;3.70;;;-0.60;99.90;;;;;;5029359;28;20667;-68
2022/12/15 08:14:33;;;;;;;5.05;4.03;;;-0.70;99.90;;;;;;5028890;28;20200;-69
2022/12/15 08:17:00;;;;;;;4.13;2.42;;;-0.70;99.90;;;;;;5028226;28;20205;-68
2022/12/15 08:19:29;;;;;;;4.43;2.70;;;-0.70;99.90;;;;;;5029523;28;20898;-68
2022/12/15 08:21:56;;;;;;;5.88;4.00;;;-0.70;99.90;;;;;;5029349;28;20287;-69
2022/12/15 08:24:23;;;;;;;7.05;4.13;;;-0.60;99.90;;;;;;5029161;28;20204;-68
2022/12/15 08:26:51;;;;;;;8.27;4.22;;;-0.60;99.90;;;;;;5027388;28;20201;-68
2022/12/15 08:29:18;;;;;;;18.88;3.80;;;-0.60;99.90;;;;;;5029295;28;20197;-69
2022/12/15 08:31:45;;;;;;;9.98;5.00;;;-0.60;99.90;;;;;;5029254;28;20201;-69
2022/12/15 08:34:12;;;;;;;3.25;2.90;;;-0.60;99.90;;;;;;5029384;28;20302;-67
2022/12/15 08:36:39;;;;;;;6.13;4.55;;;-0.60;99.90;;;;;;5028086;28;20201;-67
2022/12/15 08:39:05;;;;;;;6.43;4.18;;;-0.60;99.90;;;;;;5028863;28;20211;-68
2022/12/15 08:41:33;;;;;;;2.88;2.72;;;-0.50;99.90;;;;;;5028351;28;20213;-69
2022/12/15 08:44:01;;;;;;;6.95;3.72;;;-0.50;99.90;;;;;;5028587;28;20216;-67
2022/12/15 08:46:30;;;;;;;3.53;3.33;;;-0.50;99.90;;;;;;5028047;28;20216;-68
2022/12/15 08:48:57;;;;;;;8.70;3.78;;;-0.40;99.90;;;;;;5028725;28;20209;-68
2022/12/15 08:51:26;;;;;;;3.92;3.50;;;-0.40;99.90;;;;;;5029092;28;20222;-68
2022/12/15 08:53:54;;;;;;;4.53;4.13;;;-0.30;99.90;;;;;;5027882;28;20212;-68
2022/12/15 08:56:22;;;;;;;17.83;6.22;;;-0.30;99.90;;;;;;5027777;28;20592;-69
2022/12/15 08:58:53;;;;;;;4.50;4.03;;;-0.50;99.90;;;;;;5028551;28;20228;-68
2022/12/15 09:01:23;;;;;;;8.20;4.68;;;-0.50;99.90;;;;;;5028858;28;20232;-68
2022/12/15 09:03:51;;;;;;;20.40;3.80;;;-0.50;99.90;;;;;;5028604;28;20295;-68
2022/12/15 09:06:21;;;;;;;3.80;2.50;;;-0.50;99.90;;;;;;5027248;28;20667;-68
2022/12/15 09:08:48;;;;;;;4.15;3.80;;;-0.40;99.90;;;;;;5028121;28;20208;-67
2022/12/15 09:11:15;;;;;;;6.38;4.82;;;-0.30;99.90;;;;;;5028678;28;20204;-68
2022/12/15 09:13:42;;;;;;;3.78;3.05;;;-0.30;99.90;;;;;;5028402;28;20696;-68
2022/12/15 09:16:14;;;;;;;2.20;2.10;;;-0.20;99.90;;;;;;5027342;28;20307;-68
2022/12/15 09:18:44;;;;;;;4.30;2.50;;;-0.10;99.90;;;;;;5028402;28;20201;-67
2022/12/15 09:21:12;;;;;;;11.43;6.00;;;-0.10;99.90;;;;;;5027892;28;20221;-68
2022/12/15 09:23:40;;;;;;;4.60;4.25;;;0.00;99.90;;;;;;5028113;28;20287;-68
2022/12/15 09:26:09;;;;;;;5.50;4.10;;;0.00;99.90;;;;;;5027196;28;20300;-68
2022/12/15 09:28:37;;;;;;;4.60;2.85;;;0.10;99.90;;;;;;5028067;28;20284;-67
2022/12/15 09:31:04;;;;;;;2.70;2.58;;;0.20;99.90;;;;;;5028166;28;20208;-68
2022/12/15 09:33:31;;;;;;;3.40;2.90;;;0.10;99.90;;;;;;5027378;28;20212;-68
2022/12/15 09:35:59;;;;;;;8.65;4.97;;;0.20;99.90;;;;;;5026949;28;20288;-68
2022/12/15 09:38:26;;;;;;;4.00;3.13;;;0.10;99.90;;;;;;5028029;28;20203;-68
2022/12/15 09:40:53;;;;;;;5.57;4.82;;;0.20;99.90;;;;;;5027541;28;20224;-68
2022/12/15 09:43:23;;;;;;;5.90;3.33;;;0.20;99.90;;;;;;5027749;28;20698;-68
2022/12/15 09:45:56;;;;;;;5.70;4.00;;;0.20;99.90;;;;;;5026465;28;20205;-69
2022/12/15 09:48:24;;;;;;;4.20;3.80;;;0.30;99.90;;;;;;5028033;28;20203;-69
2022/12/15 09:50:53;;;;;;;11.85;5.70;;;0.30;99.90;;;;;;5027786;28;20201;-68
2022/12/15 09:53:25;;;;;;;10.38;3.65;;;0.30;99.90;;;;;;5027613;28;20738;-69
2022/12/15 09:56:00;;;;;;;5.13;4.43;;;0.30;99.90;;;;;;5026256;28;20201;-68
2022/12/15 09:58:40;;;;;;;3.30;2.88;;;0.30;99.90;;;;;;5026928;28;20200;-68
2022/12/15 10:01:12;;;;;;;6.32;4.80;;;0.30;99.90;;;;;;5027320;28;20235;-69
2022/12/15 10:03:52;;;;;;;6.88;2.28;;;0.20;99.90;;;;;;5027209;28;20204;-69
2022/12/15 10:06:21;;;;;;;2.15;1.95;;;0.20;99.90;;;;;;5026614;28;20204;-69
2022/12/15 10:08:55;;;;;;;6.45;3.45;;;0.20;99.90;;;;;;5027545;28;20211;-68
2022/12/15 10:11:34;;;;;;;4.65;2.58;;;0.30;99.90;;;;;;5027421;28;20517;-69
2022/12/15 10:14:11;;;;;;;1.83;1.73;;;0.20;99.90;;;;;;5027518;28;20204;-69
2022/12/15 10:16:46;;;;;;;6.57;5.93;;;0.30;99.90;;;;;;5026476;28;20210;-68
2022/12/15 10:19:18;;;;;;;2.25;2.25;;;0.20;99.90;;;;;;5025633;28;20203;-69
2022/12/15 10:21:46;;;;;;;4.13;3.55;;;0.30;99.90;;;;;;5027370;28;20256;-68
2022/12/15 10:24:17;;;;;;;3.35;3.03;;;0.20;99.90;;;;;;5027405;28;20232;-68
2022/12/15 10:27:02;;;;;;;5.35;4.07;;;0.20;99.90;;;;;;5026008;28;20917;-69
2022/12/15 10:29:36;;;;;;;4.57;3.45;;;0.10;99.90;;;;;;5026831;28;20612;-68
2022/12/15 10:32:10;;;;;;;3.78;3.47;;;-0.10;99.90;;;;;;5026947;28;20207;-69
2022/12/15 10:34:38;;;;;;;3.17;2.85;;;0.00;99.90;;;;;;5027044;28;20241;-69
2022/12/15 10:37:06;;;;;;;1.50;1.50;;;0.10;99.90;;;;;;5026042;28;20204;-68
2022/12/15 10:39:39;;;;;;;3.95;3.50;;;0.10;99.90;;;;;;5027079;28;20224;-68
2022/12/15 10:42:19;;;;;;;5.45;4.70;;;0.20;99.90;;;;;;5026598;28;20216;-69
2022/12/15 10:44:48;;;;;;;6.32;4.32;;;0.30;99.90;;;;;;5026967;28;20584;-68
2022/12/15 10:47:19;;;;;;;5.45;3.75;;;0.40;99.90;;;;;;5026044;28;20197;-68
2022/12/15 10:49:46;;;;;;;18.80;3.42;;;0.40;99.90;;;;;;5026689;28;20199;-68
2022/12/15 10:52:27;;;;;;;6.22;5.60;;;0.30;99.90;;;;;;5027463;28;20239;-68
2022/12/15 10:54:55;;;;;;;3.13;3.00;;;0.30;99.90;;;;;;5026168;28;20204;-68
2022/12/15 10:57:27;;;;;;;9.52;4.97;;;0.30;99.90;;;;;;5025595;28;20200;-68
2022/12/15 10:59:55;;;;;;;7.00;6.40;;;0.30;99.90;;;;;;5027284;28;20201;-68
2022/12/15 11:02:31;;;;;;;2.20;2.05;;;0.40;99.90;;;;;;5014796;28;20227;-69
2022/12/15 11:04:59;;;;;;;6.72;5.22;;;0.50;99.90;;;;;;5006965;28;20209;-68
2022/12/15 11:07:32;;;;;;;3.38;2.20;;;0.50;99.90;;;;;;5005752;28;20236;-69
2022/12/15 11:10:02;;;;;;;3.88;2.78;;;0.50;99.90;;;;;;5006987;28;20232;-68
2022/12/15 11:15:39;;;;;;;6.68;4.85;;;0.70;99.90;;;;;;5008170;28;20260;-68
2022/12/15 11:18:22;;;;;;;7.15;5.38;;;0.60;99.90;;;;;;5009337;28;20586;-69
2022/12/15 11:20:54;;;;;;;3.70;3.40;;;0.60;99.90;;;;;;5010585;28;20236;-69
2022/12/15 11:23:28;;;;;;;7.43;4.78;;;0.70;99.90;;;;;;5010872;28;20308;-68
2022/12/15 11:26:01;;;;;;;5.97;2.40;;;0.70;99.90;;;;;;5009307;28;20197;-68
2022/12/15 11:28:38;;;;;;;4.47;4.13;;;0.80;99.90;;;;;;5010599;28;20304;-69
2022/12/15 11:31:22;;;;;;;10.65;3.50;;;0.80;99.90;;;;;;5010754;28;20216;-69
2022/12/15 11:33:50;;;;;;;5.75;4.75;;;0.80;99.90;;;;;;5010378;28;20292;-69
2022/12/15 11:36:25;;;;;;;6.15;5.65;;;0.80;99.90;;;;;;5009174;28;20220;-69
2022/12/15 11:38:58;;;;;;;3.03;2.72;;;0.80;99.90;;;;;;5010652;28;20215;-68
2022/12/15 11:41:38;;;;;;;8.35;3.15;;;0.90;99.90;;;;;;5010422;28;20237;-69
2022/12/15 11:44:23;;;;;;;12.00;5.43;;;1.00;99.90;;;;;;5028253;28;20667;-68
2022/12/15 11:46:59;;;;;;;3.28;3.03;;;1.00;99.90;;;;;;5028214;28;20621;-69
2022/12/15 11:49:45;;;;;;;5.18;3.88;;;1.00;99.90;;;;;;5029873;28;20684;-68
2022/12/15 11:52:34;;;;;;;6.15;4.22;;;1.00;99.90;;;;;;5028919;28;20204;-68
2022/12/15 11:55:09;;;;;;;5.07;3.47;;;1.10;99.90;;;;;;5029648;28;20196;-69
2022/12/15 11:58:01;;;;;;;7.03;5.60;;;1.10;99.90;;;;;;5028800;28;20231;-68
2022/12/15 12:00:35;;;;;;;7.25;3.88;;;1.10;99.90;;;;;;5029801;28;20697;-69
2022/12/15 12:03:14;;;;;;;4.55;4.10;;;1.10;99.90;;;;;;5029605;28;20979;-69
2022/12/15 12:05:59;;;;;;;11.02;4.97;;;1.10;99.90;;;;;;5028199;28;20211;-69
2022/12/15 12:08:42;;;;;;;4.72;3.95;;;1.10;99.90;;;;;;5029945;28;20789;-68
2022/12/15 12:11:13;;;;;;;4.68;2.90;;;1.20;99.90;;;;;;5029684;28;20296;-68
2022/12/15 12:13:52;;;;;;;8.13;4.30;;;1.20;99.90;;;;;;5029640;28;20227;-69
2022/12/15 12:16:31;;;;;;;5.90;4.25;;;1.10;99.90;;;;;;5028767;28;20291;-68
2022/12/15 12:19:02;;;;;;;12.88;4.10;;;1.10;99.90;;;;;;5028254;28;20707;-68
2022/12/15 12:21:34;;;;;;;9.68;5.60;;;1.10;99.90;;;;;;5029102;28;20216;-69
2022/12/15 12:24:04;;;;;;;6.32;4.82;;;1.10;99.90;;;;;;5029386;28;20202;-68
2022/12/15 12:26:37;;;;;;;5.75;5.15;;;1.10;99.90;;;;;;5027018;28;20205;-68
2022/12/15 12:29:12;;;;;;;3.28;2.75;;;1.20;99.90;;;;;;5029203;28;20215;-68
2022/12/15 12:31:46;;;;;;;3.10;2.88;;;1.30;99.90;;;;;;5029519;28;20295;-69
2022/12/15 12:34:19;;;;;;;6.68;4.38;;;1.40;99.90;;;;;;5029196;28;20565;-68
2022/12/15 12:36:48;;;;;;;4.90;4.40;;;1.30;99.90;;;;;;5027513;28;20249;-68
2022/12/15 12:39:20;;;;;;;4.43;3.58;;;1.40;99.90;;;;;;5029176;28;20232;-68
2022/12/15 12:41:55;;;;;;;4.25;2.22;;;1.40;99.90;;;;;;5028975;28;20973;-69
2022/12/15 12:44:32;;;;;;;2.88;2.65;;;1.50;99.90;;;;;;5027407;28;20212;-68
2022/12/15 12:47:04;;;;;;;9.02;8.05;;;1.40;99.90;;;;;;5028027;28;20368;-68
2022/12/15 12:49:36;;;;;;;5.57;3.50;;;1.40;99.90;;;;;;5028381;28;20200;-68
2022/12/15 12:52:06;;;;;;;6.13;2.95;;;1.50;99.90;;;;;;5029092;28;20206;-68
2022/12/15 12:54:51;;;;;;;3.55;3.25;;;1.40;99.90;;;;;;5028740;28;20200;-68
2022/12/15 12:57:34;;;;;;;3.38;3.00;;;1.50;99.90;;;;;;5027909;28;20283;-69
2022/12/15 13:00:16;;;;;;;8.38;6.43;;;1.50;99.90;;;;;;5028604;28;20212;-68
2022/12/15 13:03:16;;;;;;;11.68;4.95;;;1.50;99.90;;;;;;5028922;28;20232;-69
2022/12/15 13:05:44;;;;;;;3.83;2.40;;;1.60;99.90;;;;;;5024001;28;20216;-69
2022/12/15 13:08:48;;;;;;;9.88;4.88;;;1.60;99.90;;;;;;5027809;28;20201;-69
2022/12/15 13:11:58;;;;;;;7.15;3.45;;;1.60;99.90;;;;;;5028490;28;20208;-68
2022/12/15 13:14:49;;;;;;;3.90;2.00;;;1.50;99.90;;;;;;5027768;28;20210;-69
2022/12/15 13:17:27;;;;;;;7.40;4.72;;;1.40;99.90;;;;;;5011382;28;20208;-68
2022/12/15 13:20:26;;;;;;;13.05;6.18;;;1.40;99.90;;;;;;5028120;28;20290;-68
2022/12/15 13:22:55;;;;;;;7.32;3.53;;;1.40;99.90;;;;;;5028004;28;20235;-68
2022/12/15 13:25:41;;;;;;;14.68;5.20;;;1.40;99.90;;;;;;5028448;28;20807;-69
2022/12/15 13:28:50;;;;;;;6.65;3.55;;;1.40;99.90;;;;;;5027531;28;20295;-69
2022/12/15 13:31:27;;;;;;;3.20;2.65;;;1.40;99.90;;;;;;5020053;28;20212;-68
2022/12/15 13:34:21;;;;;;;8.27;3.47;;;1.40;99.90;;;;;;5028472;28;20204;-69
2022/12/15 13:37:34;;;;;;;12.73;3.17;;;1.40;99.90;;;;;;5027082;28;20207;-68
2022/12/15 13:40:01;;;;;;;10.98;2.53;;;1.40;99.90;;;;;;5028122;28;20305;-69
2022/12/15 13:42:31;;;;;;;4.30;3.88;;;1.40;99.90;;;;;;5027792;28;20220;-69
2022/12/15 13:45:38;;;;;;;7.70;4.53;;;1.30;99.90;;;;;;5028046;28;20240;-69
2022/12/15 13:48:31;;;;;;;1.65;1.55;;;1.40;99.90;;;;;;5010231;28;20298;-69
2022/12/15 13:51:18;;;;;;;3.33;3.03;;;1.30;99.90;;;;;;5028134;28;20207;-68
2022/12/15 13:53:51;;;;;;;6.53;3.40;;;1.20;99.90;;;;;;5025355;28;20217;-70
2022/12/15 13:56:25;;;;;;;11.05;2.28;;;1.20;99.90;;;;;;5026812;28;20210;-69
2022/12/15 13:58:59;;;;;;;3.85;3.58;;;1.10;99.90;;;;;;5028139;28;20208;-69
2022/12/15 14:01:28;;;;;;;4.55;3.50;;;1.10;99.90;;;;;;5028036;28;20207;-68
2022/12/15 14:04:14;;;;;;;6.70;5.50;;;1.10;99.90;;;;;;5027722;28;20209;-69
2022/12/15 14:06:46;;;;;;;7.00;3.28;;;1.10;99.90;;;;;;5026832;28;20204;-69
2022/12/15 14:09:15;;;;;;;8.32;5.35;;;1.00;99.90;;;;;;5027944;28;20209;-68
2022/12/15 14:11:44;;;;;;;4.38;3.97;;;1.00;99.90;;;;;;5027810;28;20211;-69
2022/12/15 14:14:18;;;;;;;11.18;4.70;;;1.00;99.90;;;;;;5027787;28;20207;-69
2022/12/15 14:16:45;;;;;;;7.90;3.88;;;1.00;99.90;;;;;;5026100;28;20606;-70
2022/12/15 14:19:14;;;;;;;3.05;2.53;;;0.90;99.90;;;;;;5026196;28;20213;-68
2022/12/15 14:21:49;;;;;;;6.43;3.70;;;1.00;99.90;;;;;;5027499;28;20224;-68
2022/12/15 14:24:25;;;;;;;5.80;3.80;;;1.00;99.90;;;;;;5027716;28;20703;-69
2022/12/15 14:26:53;;;;;;;4.20;3.85;;;1.00;99.90;;;;;;5026421;28;20226;-69
2022/12/15 14:29:20;;;;;;;3.30;3.10;;;0.90;99.90;;;;;;5027110;28;20197;-68
2022/12/15 14:31:50;;;;;;;9.25;6.25;;;0.90;99.90;;;;;;5027128;28;20208;-69
2022/12/15 14:34:24;;;;;;;3.00;2.75;;;0.90;99.90;;;;;;5027318;28;20211;-68
2022/12/15 14:36:55;;;;;;;2.47;2.28;;;0.90;99.90;;;;;;5025867;28;20209;-68
2022/12/15 14:39:25;;;;;;;6.55;2.78;;;0.80;99.90;;;;;;5027937;28;20724;-69
2022/12/15 14:41:53;;;;;;;4.88;3.50;;;0.80;99.90;;;;;;5026626;28;20229;-68
2022/12/15 14:44:28;;;;;;;12.30;4.50;;;0.80;99.90;;;;;;5026023;28;20216;-68
2022/12/15 14:46:56;;;;;;;3.63;2.80;;;0.80;99.90;;;;;;5025920;28;20211;-68
2022/12/15 14:49:25;;;;;;;5.65;3.25;;;0.80;99.90;;;;;;5028704;28;20207;-68
2022/12/15 14:51:57;;;;;;;2.58;2.00;;;0.80;99.90;;;;;;5031010;28;20227;-69
2022/12/15 14:54:30;;;;;;;3.25;2.95;;;0.80;99.90;;;;;;5030962;28;20301;-69
2022/12/15 14:57:00;;;;;;;3.53;3.22;;;0.70;99.90;;;;;;5030055;28;20292;-68
2022/12/15 14:59:32;;;;;;;4.45;3.47;;;0.70;99.90;;;;;;5031534;28;20209;-69
2022/12/15 15:02:06;;;;;;;5.97;3.50;;;0.70;99.90;;;;;;5031092;28;20220;-69
2022/12/15 15:04:34;;;;;;;9.90;4.10;;;0.70;99.90;;;;;;5031369;28;20204;-69
2022/12/15 15:07:04;;;;;;;4.22;2.25;;;0.70;99.90;;;;;;5029557;28;20200;-69
2022/12/15 15:09:33;;;;;;;2.60;2.40;;;0.70;99.90;;;;;;5031418;28;20219;-69
2022/12/15 15:12:02;;;;;;;6.18;3.53;;;0.70;99.90;;;;;;5030814;28;20581;-69
2022/12/15 15:14:32;;;;;;;2.40;1.55;;;0.70;99.90;;;;;;5031567;28;20626;-68
2022/12/15 15:17:08;;;;;;;3.50;2.30;;;0.70;99.90;;;;;;5029962;28;20197;-68
2022/12/15 15:19:38;;;;;;;4.82;4.63;;;0.70;99.90;;;;;;5030972;28;20897;-68
2022/12/15 15:22:20;;;;;;;6.95;3.38;;;0.80;99.90;;;;;;5030769;28;20228;-68
2022/12/15 15:24:51;;;;;;;10.90;4.63;;;0.90;99.90;;;;;;5030819;28;20297;-68
2022/12/15 15:27:27;;;;;;;2.88;2.67;;;0.70;99.90;;;;;;5029643;28;20205;-69
2022/12/15 15:30:12;;;;;;;6.05;3.83;;;0.80;99.90;;;;;;5030065;28;20200;-69
2022/12/15 15:32:50;;;;;;;8.93;4.00;;;0.70;99.90;;;;;;5030583;28;20228;-68
2022/12/15 15:35:17;;;;;;;5.30;3.20;;;0.80;99.90;;;;;;5030567;28;20205;-69
2022/12/15 15:37:46;;;;;;;7.55;3.03;;;0.80;99.90;;;;;;5029501;28;20200;-69
2022/12/15 15:40:14;;;;;;;6.03;3.92;;;0.80;99.90;;;;;;5030052;28;20201;-68